createdAt,value
2017-08-03T00:00:01.668Z,14.31
2017-08-03T00:01:01.894Z,14.29
2017-08-03T00:02:01.655Z,14.45
2017-08-03T00:03:01.669Z,14.42
2017-08-03T00:04:01.643Z,14.44
2017-08-03T00:05:01.643Z,14.35
2017-08-03T00:06:15.266Z,14.39
2017-08-03T00:07:01.617Z,14.46
2017-08-03T00:08:01.318Z,14.39
2017-08-03T00:09:01.622Z,14.35
2017-08-03T00:10:01.608Z,14.36
2017-08-03T00:11:01.296Z,14.31
2017-08-03T00:12:01.587Z,14.31
2017-08-03T00:13:01.590Z,14.3
2017-08-03T00:14:01.583Z,14.35
2017-08-03T00:15:01.581Z,14.36
2017-08-03T00:16:01.771Z,14.41
2017-08-03T00:17:01.263Z,14.36
2017-08-03T00:18:01.264Z,14.38
2017-08-03T00:19:01.561Z,14.44
2017-08-03T00:20:01.561Z,14.39
2017-08-03T00:21:01.540Z,14.41
2017-08-03T00:22:01.531Z,14.39
2017-08-03T00:23:01.546Z,14.29
2017-08-03T00:24:01.526Z,14.34
2017-08-03T00:25:01.520Z,14.3
2017-08-03T00:26:01.519Z,14.19
2017-08-03T00:27:01.502Z,14.34
2017-08-03T00:28:01.495Z,14.31
2017-08-03T00:29:01.500Z,14.35
2017-08-03T00:30:01.479Z,14.3
2017-08-03T00:31:01.176Z,14.31
2017-08-03T00:32:01.468Z,14.31
2017-08-03T00:33:01.475Z,14.38
2017-08-03T00:34:01.467Z,14.44
2017-08-03T00:35:01.470Z,14.45
2017-08-03T00:36:01.146Z,14.42
2017-08-03T00:37:01.141Z,14.41
2017-08-03T00:38:01.437Z,14.41
2017-08-03T00:39:01.439Z,14.46
2017-08-03T00:40:01.426Z,14.48
2017-08-03T00:41:01.125Z,14.38
2017-08-03T00:42:01.420Z,14.3
2017-08-03T00:43:01.408Z,14.3
2017-08-03T00:44:01.428Z,14.27
2017-08-03T00:45:01.390Z,14.31
2017-08-03T00:46:01.594Z,14.23
2017-08-03T00:47:01.385Z,14.17
2017-08-03T00:48:01.385Z,14.12
2017-08-03T00:49:01.384Z,14.05
2017-08-03T00:50:01.591Z,14.01
2017-08-03T00:51:01.573Z,14.17
2017-08-03T00:52:00.756Z,14.16
2017-08-03T00:53:01.353Z,14.27
2017-08-03T00:54:01.344Z,14.24
2017-08-03T00:55:01.342Z,14.41
2017-08-03T00:56:01.335Z,14.41
2017-08-03T00:57:01.331Z,14.42
2017-08-03T00:58:01.322Z,14.38
2017-08-03T00:59:01.327Z,14.42
2017-08-03T01:00:01.311Z,14.41
2017-08-03T01:01:01.304Z,14.48
2017-08-03T01:02:01.303Z,14.39
2017-08-03T01:03:01.289Z,14.39
2017-08-03T01:04:01.306Z,14.41
2017-08-03T01:05:01.284Z,14.41
2017-08-03T01:06:01.265Z,14.41
2017-08-03T01:07:01.275Z,14.48
2017-08-03T01:08:00.953Z,14.46
2017-08-03T01:09:01.253Z,14.42
2017-08-03T01:10:01.253Z,14.36
2017-08-03T01:11:01.249Z,14.42
2017-08-03T01:12:01.238Z,14.38
2017-08-03T01:13:01.242Z,14.45
2017-08-03T01:14:01.229Z,14.42
2017-08-03T01:15:01.222Z,14.39
2017-08-03T01:16:01.221Z,14.35
2017-08-03T01:17:01.216Z,14.35
2017-08-03T01:18:00.913Z,14.42
2017-08-03T01:19:01.431Z,14.44
2017-08-03T01:20:01.194Z,14.34
2017-08-03T01:21:01.199Z,14.27
2017-08-03T01:22:00.580Z,14.42
2017-08-03T01:23:01.180Z,14.42
2017-08-03T01:24:01.416Z,14.45
2017-08-03T01:25:01.364Z,14.39
2017-08-03T01:26:01.173Z,14.41
2017-08-03T01:27:01.164Z,14.39
2017-08-03T01:28:01.149Z,14.48
2017-08-03T01:29:01.343Z,14.44
2017-08-03T01:30:01.155Z,14.38
2017-08-03T01:31:01.142Z,14.41
2017-08-03T01:32:01.137Z,14.38
2017-08-03T01:33:01.132Z,14.45
2017-08-03T01:34:01.320Z,14.36
2017-08-03T01:35:01.106Z,14.44
2017-08-03T01:36:01.098Z,14.46
2017-08-03T01:37:01.090Z,14.42
2017-08-03T01:38:01.094Z,14.49
2017-08-03T01:39:01.078Z,14.48
2017-08-03T01:40:01.099Z,14.48
2017-08-03T01:41:00.777Z,14.48
2017-08-03T01:42:01.064Z,14.38
2017-08-03T01:43:00.760Z,14.41
2017-08-03T01:44:00.754Z,14.42
2017-08-03T01:45:01.055Z,14.44
2017-08-03T01:46:00.743Z,14.42
2017-08-03T01:47:01.040Z,14.53
2017-08-03T01:48:01.038Z,14.53
2017-08-03T01:49:01.021Z,14.52
2017-08-03T01:50:01.029Z,14.53
2017-08-03T01:51:01.007Z,14.49
2017-08-03T01:52:00.998Z,14.53
2017-08-03T01:53:00.999Z,14.59
2017-08-03T01:54:01.006Z,14.61
2017-08-03T01:55:00.998Z,14.64
2017-08-03T01:56:00.993Z,14.67
2017-08-03T01:57:00.970Z,14.6
2017-08-03T01:58:00.660Z,14.53
2017-08-03T01:59:00.966Z,14.48
2017-08-03T02:00:00.656Z,14.52
2017-08-03T02:01:00.951Z,14.66
2017-08-03T02:02:00.950Z,14.6
2017-08-03T02:03:00.936Z,14.63
2017-08-03T02:04:01.128Z,14.49
2017-08-03T02:05:00.928Z,14.53
2017-08-03T02:06:00.629Z,14.49
2017-08-03T02:07:00.913Z,14.52
2017-08-03T02:08:00.915Z,14.49
2017-08-03T02:09:00.902Z,14.48
2017-08-03T02:10:00.895Z,14.39
2017-08-03T02:11:00.890Z,14.48
2017-08-03T02:12:00.886Z,14.46
2017-08-03T02:13:00.879Z,14.53
2017-08-03T02:14:00.863Z,14.52
2017-08-03T02:15:00.873Z,14.46
2017-08-03T02:16:00.870Z,14.53
2017-08-03T02:17:00.857Z,14.53
2017-08-03T02:18:00.850Z,14.52
2017-08-03T02:19:00.848Z,14.45
2017-08-03T02:20:00.842Z,14.54
2017-08-03T02:21:00.220Z,14.42
2017-08-03T02:22:00.828Z,14.41
2017-08-03T02:23:00.817Z,14.39
2017-08-03T02:24:00.817Z,14.34
2017-08-03T02:25:00.820Z,14.49
2017-08-03T02:26:00.497Z,14.49
2017-08-03T02:27:00.794Z,14.52
2017-08-03T02:28:00.795Z,14.46
2017-08-03T02:29:00.778Z,14.35
2017-08-03T02:30:00.788Z,14.42
2017-08-03T02:31:00.778Z,14.54
2017-08-03T02:32:00.774Z,14.61
2017-08-03T02:33:00.757Z,14.6
2017-08-03T02:34:00.148Z,14.49
2017-08-03T02:35:00.434Z,14.49
2017-08-03T02:36:00.737Z,14.42
2017-08-03T02:37:00.749Z,14.41
2017-08-03T02:38:00.726Z,14.35
2017-08-03T02:39:00.730Z,14.41
2017-08-03T02:40:00.707Z,14.54
2017-08-03T02:42:00.707Z,14.53
2017-08-03T02:43:00.112Z,14.54
2017-08-03T02:44:00.699Z,14.53
2017-08-03T02:45:00.683Z,14.52
2017-08-03T02:46:00.683Z,14.44
2017-08-03T02:47:00.682Z,14.41
2017-08-03T02:48:00.667Z,14.46
2017-08-03T02:49:00.376Z,14.44
2017-08-03T02:50:00.649Z,14.48
2017-08-03T02:51:00.650Z,14.52
2017-08-03T02:52:00.633Z,14.45
2017-08-03T02:53:00.636Z,14.39
2017-08-03T02:54:00.632Z,14.45
2017-08-03T02:55:00.623Z,14.48
2017-08-03T02:56:00.617Z,14.53
2017-08-03T02:57:00.612Z,14.52
2017-08-03T02:58:00.607Z,14.45
2017-08-03T02:59:00.603Z,14.42
2017-08-03T03:00:00.587Z,14.42
2017-08-03T03:01:00.277Z,14.49
2017-08-03T03:02:00.580Z,14.52
2017-08-03T03:03:00.600Z,14.48
2017-08-03T03:04:00.573Z,14.41
2017-08-03T03:05:00.565Z,14.38
2017-08-03T03:06:00.562Z,14.48
2017-08-03T03:07:00.554Z,14.39
2017-08-03T03:08:00.536Z,14.44
2017-08-03T03:09:00.529Z,14.38
2017-08-03T03:10:00.525Z,14.42
2017-08-03T03:11:00.545Z,14.38
2017-08-03T03:12:00.524Z,14.49
2017-08-03T03:13:00.515Z,14.49
2017-08-03T03:14:00.504Z,14.38
2017-08-03T03:15:00.494Z,14.34
2017-08-03T03:16:00.486Z,14.39
2017-08-03T03:17:00.191Z,14.44
2017-08-03T03:18:00.480Z,14.38
2017-08-03T03:19:00.468Z,14.42
2017-08-03T03:20:00.467Z,14.41
2017-08-03T03:21:00.466Z,14.41
2017-08-03T03:22:00.461Z,14.39
2017-08-03T03:23:00.450Z,14.41
2017-08-03T03:24:00.136Z,14.44
2017-08-03T03:25:00.428Z,14.44
2017-08-03T03:26:00.437Z,14.41
2017-08-03T03:27:00.436Z,14.41
2017-08-03T03:28:00.422Z,14.39
2017-08-03T03:29:00.423Z,14.45
2017-08-03T03:30:00.401Z,14.44
2017-08-03T03:31:00.402Z,14.29
2017-08-03T03:32:00.393Z,14.31
2017-08-03T03:33:00.390Z,14.38
2017-08-03T03:34:00.370Z,14.42
2017-08-03T03:35:00.076Z,14.36
2017-08-03T03:36:00.370Z,14.41
2017-08-03T03:37:00.372Z,14.38
2017-08-03T03:38:00.354Z,14.41
2017-08-03T03:39:00.355Z,14.36
2017-08-03T03:40:00.341Z,14.41
2017-08-03T03:41:00.030Z,14.42
2017-08-03T03:42:00.336Z,14.42
2017-08-03T03:43:00.323Z,14.48
2017-08-03T03:44:00.319Z,14.36
2017-08-03T03:45:00.309Z,14.49
2017-08-03T03:46:00.004Z,14.49
2017-08-03T03:47:00.309Z,14.54
2017-08-03T03:47:59.981Z,14.49
2017-08-03T03:49:00.276Z,14.52
2017-08-03T03:50:00.305Z,14.49
2017-08-03T03:51:00.273Z,14.46
2017-08-03T03:52:00.268Z,14.59
2017-08-03T03:52:59.960Z,14.52
2017-08-03T03:54:00.252Z,14.49
2017-08-03T03:55:00.248Z,14.48
2017-08-03T03:55:59.928Z,14.53
2017-08-03T03:57:00.241Z,14.49
2017-08-03T03:58:00.230Z,14.48
2017-08-03T03:59:00.220Z,14.42
2017-08-03T03:59:59.902Z,14.31
2017-08-03T04:00:59.912Z,14.48
2017-08-03T04:02:00.212Z,14.36
2017-08-03T04:03:00.189Z,14.39
2017-08-03T04:04:00.184Z,14.46
2017-08-03T04:04:59.896Z,14.42
2017-08-03T04:05:59.873Z,14.52
2017-08-03T04:07:00.172Z,14.53
2017-08-03T04:08:00.160Z,14.6
2017-08-03T04:08:59.854Z,14.52
2017-08-03T04:09:59.857Z,14.56
2017-08-03T04:11:00.142Z,14.53
2017-08-03T04:12:00.148Z,14.56
2017-08-03T04:13:00.138Z,14.59
2017-08-03T04:14:00.124Z,14.56
2017-08-03T04:15:00.118Z,14.52
2017-08-03T04:16:00.124Z,14.53
2017-08-03T04:17:00.108Z,14.46
2017-08-03T04:18:00.102Z,14.38
2017-08-03T04:19:00.102Z,14.49
2017-08-03T04:19:59.787Z,14.56
2017-08-03T04:20:59.780Z,14.56
2017-08-03T04:21:59.773Z,14.61
2017-08-03T04:23:00.067Z,14.69
2017-08-03T04:23:59.769Z,14.69
2017-08-03T04:25:00.063Z,14.56
2017-08-03T04:26:00.052Z,14.56
2017-08-03T04:26:59.750Z,14.56
2017-08-03T04:28:00.030Z,14.57
2017-08-03T04:29:00.044Z,14.6
2017-08-03T04:30:00.024Z,14.66
2017-08-03T04:31:00.019Z,14.63
2017-08-03T04:32:00.023Z,14.63
2017-08-03T04:32:59.707Z,14.72
2017-08-03T04:34:00.006Z,14.67
2017-08-03T04:34:59.688Z,14.69
2017-08-03T04:35:59.988Z,14.63
2017-08-03T04:36:59.984Z,14.64
2017-08-03T04:37:59.991Z,14.66
2017-08-03T04:38:59.969Z,14.71
2017-08-03T04:39:59.957Z,14.59
2017-08-03T04:40:59.948Z,14.59
2017-08-03T04:41:59.941Z,14.75
2017-08-03T04:42:59.947Z,14.79
2017-08-03T04:43:59.931Z,14.79
2017-08-03T04:44:59.637Z,14.85
2017-08-03T04:45:59.926Z,14.87
2017-08-03T04:46:59.921Z,14.87
2017-08-03T04:47:59.910Z,14.87
2017-08-03T04:48:59.909Z,14.9
2017-08-03T04:49:59.607Z,14.94
2017-08-03T04:50:59.896Z,15.04
2017-08-03T04:51:59.588Z,15.05
2017-08-03T04:52:59.583Z,15.11
2017-08-03T04:53:59.570Z,15.25
2017-08-03T04:54:59.565Z,15.15
2017-08-03T04:55:59.866Z,15.04
2017-08-03T04:56:59.555Z,14.97
2017-08-03T04:57:59.864Z,14.93
2017-08-03T04:58:59.546Z,14.72
2017-08-03T04:59:59.545Z,14.69
2017-08-03T05:00:59.530Z,14.71
2017-08-03T05:01:59.827Z,14.66
2017-08-03T05:02:59.517Z,14.69
2017-08-03T05:03:59.818Z,14.72
2017-08-03T05:04:59.816Z,14.82
2017-08-03T05:05:59.504Z,14.85
2017-08-03T05:06:59.488Z,15.07
2017-08-03T05:07:59.494Z,15.19
2017-08-03T05:08:59.489Z,15.44
2017-08-03T05:09:59.790Z,15.62
2017-08-03T05:10:59.782Z,15.91
2017-08-03T05:11:59.769Z,15.88
2017-08-03T05:12:59.765Z,15.78
2017-08-03T05:13:59.753Z,15.76
2017-08-03T05:14:59.445Z,15.92
2017-08-03T05:15:59.447Z,15.92
2017-08-03T05:16:59.435Z,15.62
2017-08-03T05:17:59.734Z,15.7
2017-08-03T05:18:59.423Z,15.78
2017-08-03T05:19:59.723Z,16.03
2017-08-03T05:20:59.413Z,15.91
2017-08-03T05:21:59.408Z,15.96
2017-08-03T05:22:59.397Z,15.86
2017-08-03T05:23:59.404Z,15.93
2017-08-03T05:24:59.388Z,16.32
2017-08-03T05:25:59.691Z,16.48
2017-08-03T05:26:59.687Z,16.37
2017-08-03T05:27:59.378Z,16.08
2017-08-03T05:28:59.368Z,16.03
2017-08-03T05:29:59.380Z,15.96
2017-08-03T05:30:59.366Z,16.04
2017-08-03T05:31:59.660Z,16.29
2017-08-03T05:32:59.348Z,16.13
2017-08-03T05:33:59.346Z,15.81
2017-08-03T05:34:59.648Z,15.66
2017-08-03T05:35:59.332Z,15.74
2017-08-03T05:36:59.334Z,15.68
2017-08-03T05:37:59.623Z,15.67
2017-08-03T05:38:59.614Z,15.81
2017-08-03T05:39:59.611Z,15.81
2017-08-03T05:40:59.609Z,16.04
2017-08-03T05:41:59.305Z,15.89
2017-08-03T05:42:59.603Z,15.96
2017-08-03T05:43:59.292Z,16.29
2017-08-03T05:44:59.286Z,15.99
2017-08-03T05:45:59.575Z,16.08
2017-08-03T05:46:59.278Z,15.93
2017-08-03T05:47:59.273Z,15.78
2017-08-03T05:48:59.286Z,15.98
2017-08-03T05:49:59.259Z,16.13
2017-08-03T05:50:59.566Z,16.75
2017-08-03T05:51:59.558Z,16.78
2017-08-03T05:52:59.541Z,17.07
2017-08-03T05:53:59.543Z,17.05
2017-08-03T05:54:59.233Z,16.95
2017-08-03T05:55:59.518Z,16.8
2017-08-03T05:56:59.525Z,16.75
2017-08-03T05:57:59.513Z,16.59
2017-08-03T05:58:59.521Z,16.73
2017-08-03T05:59:59.209Z,16.72
2017-08-03T06:00:59.498Z,16.65
2017-08-03T06:01:59.497Z,16.59
2017-08-03T06:02:59.489Z,16.37
2017-08-03T06:03:59.180Z,16.33
2017-08-03T06:04:59.176Z,16.25
2017-08-03T06:05:59.480Z,15.96
2017-08-03T06:06:59.165Z,15.76
2017-08-03T06:07:59.162Z,15.76
2017-08-03T06:08:59.452Z,15.86
2017-08-03T06:09:59.148Z,15.93
2017-08-03T06:10:59.151Z,15.96
2017-08-03T06:11:59.139Z,16.06
2017-08-03T06:12:59.140Z,16.13
2017-08-03T06:13:59.136Z,16.26
2017-08-03T06:14:59.131Z,16.82
2017-08-03T06:15:59.147Z,17.1
2017-08-03T06:16:59.123Z,17.15
2017-08-03T06:17:59.422Z,17.3
2017-08-03T06:18:59.115Z,17.27
2017-08-03T06:19:59.110Z,17.03
2017-08-03T06:20:58.794Z,16.77
2017-08-03T06:21:59.092Z,16.92
2017-08-03T06:22:59.392Z,17.45
2017-08-03T06:23:59.076Z,17.35
2017-08-03T06:24:59.394Z,17.17
2017-08-03T06:25:59.377Z,17.07
2017-08-03T06:26:59.073Z,16.8
2017-08-03T06:27:59.378Z,16.77
2017-08-03T06:28:59.362Z,16.65
2017-08-03T06:29:59.059Z,16.48
2017-08-03T06:30:59.350Z,16.57
2017-08-03T06:31:59.043Z,16.66
2017-08-03T06:32:59.376Z,17.07
2017-08-03T06:33:59.345Z,16.98
2017-08-03T06:34:59.346Z,16.4
2017-08-03T06:35:59.344Z,16.18
2017-08-03T06:36:59.322Z,15.96
2017-08-03T06:37:59.317Z,15.92
2017-08-03T06:38:59.312Z,16.08
2017-08-03T06:39:59.318Z,15.98
2017-08-03T06:40:59.299Z,16.14
2017-08-03T06:41:59.318Z,16.78
2017-08-03T06:42:59.000Z,16.99
2017-08-03T06:43:59.287Z,17.03
2017-08-03T06:44:59.292Z,17.14
2017-08-03T06:45:59.279Z,17.18
2017-08-03T06:46:59.286Z,16.96
2017-08-03T06:47:59.276Z,17.24
2017-08-03T06:48:59.276Z,17.06
2017-08-03T06:49:59.256Z,17.18
2017-08-03T06:50:59.263Z,17.46
2017-08-03T06:51:59.252Z,17.77
2017-08-03T06:52:59.254Z,17.46
2017-08-03T06:53:59.250Z,17.4
2017-08-03T06:54:58.929Z,17.28
2017-08-03T06:55:59.256Z,17.38
2017-08-03T06:56:59.231Z,17.27
2017-08-03T06:57:59.229Z,17.39
2017-08-03T06:58:59.228Z,17.46
2017-08-03T06:59:58.911Z,17.3
2017-08-03T07:00:59.221Z,17.36
2017-08-03T07:01:59.213Z,17.4
2017-08-03T07:02:59.204Z,17.62
2017-08-03T07:03:59.201Z,17.96
2017-08-03T07:04:59.194Z,18.39
2017-08-03T07:05:59.183Z,17.87
2017-08-03T07:06:59.192Z,17.53
2017-08-03T07:07:59.186Z,17.83
2017-08-03T07:08:59.182Z,17.63
2017-08-03T07:09:59.175Z,17.33
2017-08-03T07:10:59.173Z,17.36
2017-08-03T07:11:59.161Z,17.63
2017-08-03T07:12:59.157Z,18.07
2017-08-03T07:13:59.153Z,18.62
2017-08-03T07:14:59.147Z,19.16
2017-08-03T07:15:59.148Z,19.38
2017-08-03T07:16:58.845Z,18.57
2017-08-03T07:17:58.830Z,18.14
2017-08-03T07:18:59.133Z,18.19
2017-08-03T07:19:59.129Z,18.62
2017-08-03T07:20:59.118Z,18.97
2017-08-03T07:21:59.123Z,18.6
2017-08-03T07:22:59.119Z,18.23
2017-08-03T07:23:59.104Z,18.09
2017-08-03T07:24:59.108Z,17.32
2017-08-03T07:25:59.125Z,17.43
2017-08-03T07:26:59.095Z,17.71
2017-08-03T07:27:59.097Z,18.16
2017-08-03T07:28:59.100Z,18.68
2017-08-03T07:29:59.091Z,18.5
2017-08-03T07:30:59.084Z,18.69
2017-08-03T07:31:58.773Z,19.28
2017-08-03T07:32:59.078Z,20.1
2017-08-03T07:33:58.778Z,20.34
2017-08-03T07:34:59.072Z,19.98
2017-08-03T07:35:59.073Z,19.09
2017-08-03T07:36:58.770Z,18.75
2017-08-03T07:37:58.763Z,18.35
2017-08-03T07:38:59.051Z,18.14
2017-08-03T07:39:59.050Z,18.83
2017-08-03T07:40:58.752Z,19.32
2017-08-03T07:41:59.052Z,19.9
2017-08-03T07:42:59.050Z,20.08
2017-08-03T07:43:59.041Z,20.12
2017-08-03T07:44:59.039Z,19.05
2017-08-03T07:45:59.038Z,18.57
2017-08-03T07:46:59.039Z,18.65
2017-08-03T07:47:59.024Z,18.13
2017-08-03T07:48:59.031Z,18.39
2017-08-03T07:49:59.031Z,19.38
2017-08-03T07:50:59.020Z,20.22
2017-08-03T07:51:59.008Z,20.26
2017-08-03T07:52:59.015Z,20.15
2017-08-03T07:53:59.004Z,19.8
2017-08-03T07:54:58.698Z,18.84
2017-08-03T07:55:59.003Z,18.57
2017-08-03T07:56:58.995Z,18.54
2017-08-03T07:57:59.007Z,18.6
2017-08-03T07:58:58.995Z,17.95
2017-08-03T07:59:58.983Z,18.66
2017-08-03T08:00:58.985Z,19.2
2017-08-03T08:01:58.983Z,19.62
2017-08-03T08:02:58.674Z,19.27
2017-08-03T08:03:58.971Z,19.35
2017-08-03T08:04:58.979Z,19.15
2017-08-03T08:05:58.973Z,19.21
2017-08-03T08:06:58.655Z,19.02
2017-08-03T08:07:58.971Z,18.97
2017-08-03T08:08:58.968Z,18.9
2017-08-03T08:09:58.960Z,18.84
2017-08-03T08:10:58.965Z,19.05
2017-08-03T08:11:58.956Z,19.38
2017-08-03T08:12:58.953Z,19.52
2017-08-03T08:13:58.943Z,19.12
2017-08-03T08:14:58.941Z,18.71
2017-08-03T08:15:58.938Z,18.31
2017-08-03T08:16:58.639Z,18.26
2017-08-03T08:17:58.940Z,17.8
2017-08-03T08:18:58.939Z,17.86
2017-08-03T08:19:58.627Z,18.56
2017-08-03T08:20:58.925Z,18.84
2017-08-03T08:21:58.922Z,18.86
2017-08-03T08:22:58.922Z,18.82
2017-08-03T08:23:58.604Z,18.64
2017-08-03T08:24:58.917Z,18.65
2017-08-03T08:25:58.901Z,18.46
2017-08-03T08:26:58.902Z,18.56
2017-08-03T08:27:58.889Z,18.56
2017-08-03T08:28:58.885Z,18.59
2017-08-03T08:29:58.890Z,18.07
2017-08-03T08:30:58.583Z,17.76
2017-08-03T08:31:58.873Z,18.74
2017-08-03T08:32:58.876Z,19.61
2017-08-03T08:33:58.876Z,19.46
2017-08-03T08:34:58.874Z,20
2017-08-03T08:35:58.875Z,20.16
2017-08-03T08:36:58.562Z,20.37
2017-08-03T08:37:58.869Z,20.97
2017-08-03T08:38:58.858Z,21.7
2017-08-03T08:39:58.870Z,22.01
2017-08-03T08:40:58.553Z,21.3
2017-08-03T08:41:58.549Z,21.37
2017-08-03T08:42:58.545Z,20.37
2017-08-03T08:43:58.843Z,19.9
2017-08-03T08:44:58.542Z,19.64
2017-08-03T08:45:58.848Z,19.53
2017-08-03T08:46:58.845Z,19.01
2017-08-03T08:47:58.540Z,18.72
2017-08-03T08:48:58.829Z,18.87
2017-08-03T08:49:58.828Z,19.13
2017-08-03T08:50:58.819Z,19.27
2017-08-03T08:51:58.829Z,19.34
2017-08-03T08:52:58.828Z,19.2
2017-08-03T08:53:58.826Z,19.87
2017-08-03T08:54:58.816Z,20.44
2017-08-03T08:55:58.212Z,20.79
2017-08-03T08:56:58.805Z,21.34
2017-08-03T08:57:58.803Z,22.09
2017-08-03T08:58:58.196Z,22.19
2017-08-03T08:59:58.806Z,22.24
2017-08-03T09:00:58.810Z,21.75
2017-08-03T09:01:58.498Z,21.03
2017-08-03T09:02:58.793Z,20.79
2017-08-03T09:03:58.797Z,20.9
2017-08-03T09:04:58.794Z,20.78
2017-08-03T09:05:58.790Z,21.03
2017-08-03T09:06:58.797Z,21.38
2017-08-03T09:07:58.790Z,21.75
2017-08-03T09:08:58.791Z,22.05
2017-08-03T09:09:58.776Z,22.38
2017-08-03T09:10:58.807Z,22.38
2017-08-03T09:11:58.777Z,22.09
2017-08-03T09:12:58.792Z,21.79
2017-08-03T09:13:58.768Z,21.27
2017-08-03T09:14:58.765Z,20.96
2017-08-03T09:15:58.767Z,21.06
2017-08-03T09:16:58.778Z,20.66
2017-08-03T09:17:58.778Z,20.79
2017-08-03T09:18:58.762Z,21.48
2017-08-03T09:19:58.766Z,21.63
2017-08-03T09:20:58.749Z,21.81
2017-08-03T09:21:58.753Z,21.89
2017-08-03T09:22:58.754Z,21.94
2017-08-03T09:23:58.749Z,21.67
2017-08-03T09:24:58.448Z,21.31
2017-08-03T09:25:58.448Z,21.12
2017-08-03T09:26:58.132Z,21.08
2017-08-03T09:27:58.736Z,20.82
2017-08-03T09:28:58.741Z,20.56
2017-08-03T09:29:58.742Z,20.53
2017-08-03T09:30:58.744Z,20.73
2017-08-03T09:31:58.429Z,21.09
2017-08-03T09:32:58.728Z,21.36
2017-08-03T09:33:58.719Z,21.43
2017-08-03T09:34:58.724Z,21.42
2017-08-03T09:35:58.716Z,21.79
2017-08-03T09:36:58.717Z,21.94
2017-08-03T09:37:58.106Z,22.17
2017-08-03T09:38:58.713Z,21.91
2017-08-03T09:39:58.401Z,21.48
2017-08-03T09:40:58.715Z,21.26
2017-08-03T09:41:58.716Z,21.03
2017-08-03T09:42:58.702Z,21.16
2017-08-03T09:43:58.704Z,20.88
2017-08-03T09:44:58.705Z,20.54
2017-08-03T09:45:58.091Z,19.71
2017-08-03T09:46:58.704Z,19.05
2017-08-03T09:47:58.385Z,18.56
2017-08-03T09:48:58.682Z,18.32
2017-08-03T09:49:58.682Z,18.1
2017-08-03T09:50:58.679Z,18.1
2017-08-03T09:51:58.077Z,17.99
2017-08-03T09:52:58.377Z,18.02
2017-08-03T09:53:58.681Z,18.57
2017-08-03T09:54:58.665Z,19.2
2017-08-03T09:55:58.673Z,19.86
2017-08-03T09:56:58.652Z,20.3
2017-08-03T09:57:58.653Z,20.68
2017-08-03T09:58:58.662Z,21.01
2017-08-03T09:59:58.656Z,21.27
2017-08-03T10:00:58.351Z,21.18
2017-08-03T10:01:58.638Z,21.22
2017-08-03T10:02:58.638Z,21.22
2017-08-03T10:03:58.329Z,21.22
2017-08-03T10:04:58.636Z,21.56
2017-08-03T10:05:58.629Z,22.09
2017-08-03T10:06:58.627Z,22.52
2017-08-03T10:07:58.020Z,22.76
2017-08-03T10:08:58.617Z,22.79
2017-08-03T10:09:58.613Z,23.14
2017-08-03T10:10:58.307Z,23.12
2017-08-03T10:11:58.314Z,22.61
2017-08-03T10:12:58.308Z,22.24
2017-08-03T10:13:58.621Z,22.2
2017-08-03T10:14:58.003Z,21.94
2017-08-03T10:15:58.295Z,21.85
2017-08-03T10:16:58.613Z,21.79
2017-08-03T10:17:58.601Z,21.96
2017-08-03T10:18:57.989Z,21.89
2017-08-03T10:19:58.601Z,21.51
2017-08-03T10:20:57.995Z,20.97
2017-08-03T10:21:58.593Z,20.05
2017-08-03T10:22:58.286Z,20.76
2017-08-03T10:23:58.601Z,21.38
2017-08-03T10:24:58.281Z,21.94
2017-08-03T10:25:58.589Z,22.45
2017-08-03T10:26:58.297Z,22.99
2017-08-03T10:27:58.591Z,23.31
2017-08-03T10:28:57.974Z,23.39
2017-08-03T10:29:58.281Z,23.79
2017-08-03T10:30:58.587Z,23.72
2017-08-03T10:31:57.973Z,23.04
2017-08-03T10:32:58.296Z,22.46
2017-08-03T10:33:57.974Z,22.06
2017-08-03T10:34:58.275Z,21.99
2017-08-03T10:35:58.578Z,21.77
2017-08-03T10:36:58.281Z,21.81
2017-08-03T10:37:58.269Z,21.51
2017-08-03T10:38:58.567Z,21.27
2017-08-03T10:39:58.575Z,20.97
2017-08-03T10:40:58.259Z,20.75
2017-08-03T10:41:58.273Z,20.6
2017-08-03T10:42:58.562Z,20.58
2017-08-03T10:43:58.554Z,20.38
2017-08-03T10:44:58.559Z,20.35
2017-08-03T10:45:58.258Z,20.38
2017-08-03T10:46:58.555Z,20.2
2017-08-03T10:47:58.557Z,20.15
2017-08-03T10:48:58.250Z,19.75
2017-08-03T10:49:58.547Z,19.47
2017-08-03T10:50:58.547Z,19.38
2017-08-03T10:51:58.243Z,19.35
2017-08-03T10:52:58.233Z,19.45
2017-08-03T10:53:58.243Z,19.31
2017-08-03T10:54:58.528Z,19.27
2017-08-03T10:55:58.536Z,19.38
2017-08-03T10:56:58.222Z,19.52
2017-08-03T10:57:58.537Z,19.6
2017-08-03T10:58:58.215Z,19.23
2017-08-03T10:59:58.526Z,19.34
2017-08-03T11:00:58.520Z,19.5
2017-08-03T11:01:58.219Z,19.79
2017-08-03T11:02:58.216Z,20.2
2017-08-03T11:03:58.220Z,20.38
2017-08-03T11:04:58.197Z,20.31
2017-08-03T11:05:58.207Z,20.26
2017-08-03T11:06:58.199Z,20.08
2017-08-03T11:07:58.493Z,19.86
2017-08-03T11:08:58.499Z,19.87
2017-08-03T11:09:58.494Z,20.05
2017-08-03T11:10:58.495Z,20.25
2017-08-03T11:11:58.179Z,20.94
2017-08-03T11:12:58.190Z,21.36
2017-08-03T11:13:58.184Z,21.16
2017-08-03T11:14:58.483Z,21.01
2017-08-03T11:15:58.473Z,21.01
2017-08-03T11:19:30.276Z,21.24
2017-08-03T11:19:58.474Z,21.27
2017-08-03T11:20:58.467Z,21.22
2017-08-03T11:21:58.167Z,20.96
2017-08-03T11:22:57.858Z,19.5
2017-08-03T11:23:58.159Z,18.6
2017-08-03T11:24:58.166Z,18.64
2017-08-03T11:25:58.160Z,18.69
2017-08-03T11:26:58.162Z,18.64
2017-08-03T11:27:58.462Z,18.36
2017-08-03T11:28:58.470Z,18.44
2017-08-03T11:29:58.148Z,18.51
2017-08-03T11:30:58.147Z,18.32
2017-08-03T11:31:58.142Z,18.26
2017-08-03T11:32:58.146Z,18.31
2017-08-03T11:33:58.141Z,18.29
2017-08-03T11:34:58.448Z,18.41
2017-08-03T11:35:58.452Z,18.35
2017-08-03T11:36:58.443Z,18.21
2017-08-03T11:37:58.442Z,18.39
2017-08-03T11:38:58.436Z,18.46
2017-08-03T11:39:58.434Z,18.41
2017-08-03T11:40:58.432Z,18.29
2017-08-03T11:41:58.118Z,18.26
2017-08-03T11:42:57.812Z,18.91
2017-08-03T11:43:58.430Z,19.3
2017-08-03T11:44:58.108Z,19.5
2017-08-03T11:45:58.417Z,19.49
2017-08-03T11:46:58.123Z,19.76
2017-08-03T11:47:58.101Z,19.62
2017-08-03T11:48:57.799Z,19.87
2017-08-03T11:49:58.102Z,20.31
2017-08-03T11:50:58.103Z,20.56
2017-08-03T11:51:58.401Z,20.83
2017-08-03T11:52:58.099Z,20.83
2017-08-03T11:53:58.099Z,20.98
2017-08-03T11:54:58.396Z,20.94
2017-08-03T11:55:58.383Z,20.73
2017-08-03T11:56:58.400Z,20.25
2017-08-03T11:57:58.392Z,20.61
2017-08-03T11:58:58.087Z,20.34
2017-08-03T11:59:58.383Z,20.41
2017-08-03T12:00:58.373Z,20.38
2017-08-03T12:01:58.081Z,20.53
2017-08-03T12:02:58.381Z,20.44
2017-08-03T12:03:58.075Z,20.1
2017-08-03T12:04:58.375Z,20.07
2017-08-03T12:05:58.378Z,20.05
2017-08-03T12:06:58.071Z,20.15
2017-08-03T12:07:58.367Z,20
2017-08-03T12:08:58.358Z,20.51
2017-08-03T12:09:58.056Z,21.03
2017-08-03T12:10:58.356Z,21.48
2017-08-03T12:11:58.350Z,22.33
2017-08-03T12:12:58.369Z,22.51
2017-08-03T12:13:57.749Z,22.11
2017-08-03T12:14:57.747Z,21.86
2017-08-03T12:15:58.359Z,21.37
2017-08-03T12:16:58.354Z,21.12
2017-08-03T12:17:58.040Z,21.11
2017-08-03T12:18:58.352Z,21.49
2017-08-03T12:19:58.347Z,21.59
2017-08-03T12:20:58.335Z,21.71
2017-08-03T12:21:58.040Z,21.26
2017-08-03T12:22:58.034Z,21.26
2017-08-03T12:23:58.045Z,21.27
2017-08-03T12:24:58.028Z,21.34
2017-08-03T12:25:58.033Z,21.09
2017-08-03T12:26:58.340Z,21.09
2017-08-03T12:27:58.343Z,21
2017-08-03T12:28:58.325Z,21.06
2017-08-03T12:29:58.327Z,21.09
2017-08-03T12:30:58.339Z,21.82
2017-08-03T12:31:58.331Z,22.19
2017-08-03T12:32:58.031Z,22.01
2017-08-03T12:33:58.325Z,22.49
2017-08-03T12:34:58.020Z,23.04
2017-08-03T12:35:58.322Z,23.49
2017-08-03T12:36:58.314Z,23.82
2017-08-03T12:37:58.324Z,23.75
2017-08-03T12:38:58.324Z,22.81
2017-08-03T12:39:58.325Z,23.15
2017-08-03T12:40:58.322Z,23.69
2017-08-03T12:41:58.319Z,23.82
2017-08-03T12:42:58.328Z,23.77
2017-08-03T12:43:57.715Z,24.11
2017-08-03T12:44:58.016Z,23.44
2017-08-03T12:45:58.315Z,23.56
2017-08-03T12:46:58.015Z,23.69
2017-08-03T12:47:58.309Z,22.7
2017-08-03T12:48:58.310Z,22.2
2017-08-03T12:49:58.033Z,22.38
2017-08-03T12:50:58.319Z,21.64
2017-08-03T12:51:58.312Z,21.09
2017-08-03T12:52:58.014Z,21.26
2017-08-03T12:53:58.321Z,21.85
2017-08-03T12:54:58.322Z,21.93
2017-08-03T12:55:58.318Z,22.26
2017-08-03T12:56:58.305Z,22.88